Time;durP1;ratioP1;P1;durP2;ratioP2;P2;SDS_P1;SDS_P2;PMS_P1;PMS_P2;Temp;Humidity;BMP_temperature;BMP_pressure;BME280_temperature;BME280_humidity;BME280_pressure;Samples;Min_cycle;Max_cycle;Signal;HPM_P1;HPM_P2
2023/04/07 00:01:22;;;;;;;4.60;4.10;;;;;;;10.37;50.78;99964.52;147238;1272;94321;-91
2023/04/07 00:22:07;;;;;;;4.10;3.70;;;;;;;10.40;50.81;99959.55;143525;1279;94754;-93
2023/04/07 00:25:59;;;;;;;4.20;3.90;;;;;;;10.42;50.71;99956.95;146976;1280;94296;-93
2023/04/07 00:29:33;;;;;;;;;;;;;;;10.43;50.77;99955.58;146524;1282;94370;-93
2023/04/07 00:33:10;;;;;;;4.10;3.80;;;;;;;10.43;50.84;99948.46;146658;1282;94313;-90
2023/04/07 00:36:51;;;;;;;3.90;3.60;;;;;;;10.44;50.78;99947.61;146434;1282;94343;-88
2023/04/07 00:44:34;;;;;;;3.70;3.40;;;;;;;10.46;50.80;99938.95;147211;1276;94667;-94
2023/04/07 00:48:04;;;;;;;8.20;4.40;;;;;;;10.47;50.92;99943.67;147138;1280;94277;-88
2023/04/07 00:52:41;;;;;;;4.60;4.20;;;;;;;10.48;50.86;99940.55;146684;1282;94493;-76
2023/04/07 00:56:05;;;;;;;4.10;3.70;;;;;;;10.50;50.81;99936.94;146988;1281;94261;-91
2023/04/07 00:59:37;;;;;;;3.30;3.00;;;;;;;10.50;50.97;99931.73;147146;1276;95409;-83
2023/04/07 01:03:47;;;;;;;4.50;4.10;;;;;;;10.52;50.94;99932.80;146813;1280;94284;-91
2023/04/07 01:07:37;;;;;;;4.10;3.80;;;;;;;10.53;50.82;99927.27;146702;1280;94575;-89
2023/04/07 01:11:37;;;;;;;4.90;4.50;;;;;;;10.54;50.94;99929.72;146981;1280;94535;-89
2023/04/07 01:15:25;;;;;;;3.80;3.40;;;;;;;10.55;50.92;99927.45;146882;1282;94292;-90
2023/04/07 01:22:59;;;;;;;5.30;4.90;;;;;;;10.55;50.99;99929.20;115335;1285;94874;-80
2023/04/07 01:26:36;;;;;;;3.30;3.00;;;;;;;10.55;51.02;99926.77;146319;1282;94437;-78
2023/04/07 01:30:35;;;;;;;4.40;4.10;;;;;;;10.56;51.09;99925.23;146430;1282;94290;-79
2023/04/07 01:38:47;;;;;;;5.60;4.60;;;;;;;10.58;51.00;99921.27;144565;1299;94449;-91
2023/04/07 01:42:09;;;;;;;5.60;4.10;;;;;;;10.60;51.01;99924.42;144536;1299;95465;-92
2023/04/07 01:45:43;;;;;;;6.60;5.00;;;;;;;10.60;51.04;99914.70;144595;1299;94690;-85
2023/04/07 01:49:10;;;;;;;5.30;4.70;;;;;;;10.62;51.04;99917.32;146770;1282;94187;-94
2023/04/07 01:52:54;;;;;;;5.10;4.60;;;;;;;10.63;51.16;99913.70;146493;1282;94343;-93
2023/04/07 01:56:30;;;;;;;4.80;4.40;;;;;;;10.64;51.00;99914.94;146951;1282;94277;-86
2023/04/07 02:00:50;;;;;;;4.70;4.30;;;;;;;10.66;51.00;99915.81;147105;1280;94230;-92
2023/04/07 02:04:32;;;;;;;6.40;5.40;;;;;;;10.68;51.25;99915.33;146845;1282;94700;-85
2023/04/07 02:08:05;;;;;;;5.80;5.20;;;;;;;10.69;51.12;99912.90;147108;1281;94406;-75
2023/04/07 02:11:31;;;;;;;6.40;5.30;;;;;;;10.69;51.23;99918.48;146574;1280;94262;-94
2023/04/07 02:15:10;;;;;;;5.90;5.20;;;;;;;10.70;51.37;99917.28;146776;1282;94316;-92
2023/04/07 02:18:45;;;;;;;5.60;5.10;;;;;;;10.70;51.39;99913.45;146422;1281;94334;-91
2023/04/07 02:22:08;;;;;;;5.70;5.20;;;;;;;10.70;51.39;99914.85;146465;1282;94381;-92
2023/04/07 02:29:13;;;;;;;5.50;5.00;;;;;;;10.73;51.36;99915.59;147245;1276;94854;-90
2023/04/07 02:36:34;;;;;;;6.10;5.10;;;;;;;10.76;51.40;99912.86;146318;1282;94260;-92
2023/04/07 02:39:56;;;;;;;6.00;5.30;;;;;;;10.78;51.35;99907.33;147086;1280;94276;-93
2023/04/07 02:44:06;;;;;;;5.60;5.10;;;;;;;10.79;51.37;99909.92;147142;1276;94642;-94
2023/04/07 02:52:14;;;;;;;6.40;5.80;;;;;;;10.81;51.34;99907.02;115812;1283;108913;-72
2023/04/07 02:55:57;;;;;;;6.00;5.50;;;;;;;10.82;51.48;99906.34;146150;1282;108219;-75
2023/04/07 03:03:46;;;;;;;7.70;6.10;;;;;;;10.84;51.41;99912.64;147481;1273;109521;-74
2023/04/07 03:07:32;;;;;;;8.10;6.10;;;;;;;10.86;51.40;99912.98;147048;1280;110546;-83
2023/04/07 03:11:03;;;;;;;6.80;6.00;;;;;;;10.87;51.55;99915.63;146589;1281;109307;-84
2023/04/07 03:14:34;;;;;;;7.20;5.60;;;;;;;10.87;51.64;99914.59;146545;1281;110628;-80
2023/04/07 03:18:06;;;;;;;7.60;5.90;;;;;;;10.88;51.65;99916.69;146687;1281;109057;-80
2023/04/07 03:21:30;;;;;;;6.20;5.70;;;;;;;10.89;51.60;99920.02;146487;1281;112255;-76
2023/04/07 03:24:52;;;;;;;6.90;6.20;;;;;;;10.90;51.65;99918.45;146863;1281;110082;-86
2023/04/07 03:28:47;;;;;;;8.90;6.50;;;;;;;10.92;51.64;99920.57;146955;1277;109607;-75
2023/04/07 03:32:10;;;;;;;6.90;6.10;;;;;;;10.93;51.62;99920.40;146860;1278;111860;-72
2023/04/07 03:35:42;;;;;;;8.70;6.80;;;;;;;10.93;51.66;99918.15;146788;1281;94324;-73
2023/04/07 03:39:07;;;;;;;7.30;6.40;;;;;;;10.95;51.67;99920.09;146625;1282;109887;-71
2023/04/07 03:42:34;;;;;;;6.60;6.10;;;;;;;10.96;51.79;99916.97;146966;1279;94406;-78
2023/04/07 03:46:25;;;;;;;7.80;6.60;;;;;;;10.98;51.72;99918.91;146669;1281;109564;-72
2023/04/07 03:58:36;;;;;;;7.20;6.10;;;;;;;11.01;51.83;99921.05;146836;1273;109506;-80
2023/04/07 04:02:20;;;;;;;8.00;7.20;;;;;;;11.02;51.86;99915.84;146692;1283;111935;-77
2023/04/07 04:05:44;;;;;;;7.90;7.10;;;;;;;11.03;51.86;99919.16;146660;1281;110156;-82
2023/04/07 04:09:10;;;;;;;9.10;6.90;;;;;;;11.04;51.78;99918.84;146756;1281;110072;-79
2023/04/07 04:12:47;;;;;;;9.30;7.30;;;;;;;11.05;51.86;99920.23;146716;1282;111901;-75
2023/04/07 04:16:24;;;;;;;7.90;7.10;;;;;;;11.06;51.85;99920.25;146560;1281;108948;-75
2023/04/07 04:24:37;;;;;;;7.90;7.00;;;;;;;11.09;51.88;99922.73;146883;1282;109836;-72
2023/04/07 04:28:12;;;;;;;8.30;7.10;;;;;;;11.10;51.92;99923.79;146603;1282;108822;-78
2023/04/07 04:31:51;;;;;;;9.10;7.00;;;;;;;11.12;52.01;99926.59;146283;1282;109328;-77
2023/04/07 04:35:20;;;;;;;8.10;7.30;;;;;;;11.13;52.03;99931.81;146634;1282;110912;-72
2023/04/07 04:38:55;;;;;;;9.30;8.20;;;;;;;11.14;52.16;99940.90;146451;1282;109184;-74
2023/04/07 04:42:26;;;;;;;10.30;6.70;;;;;;;11.16;52.36;99938.65;146381;1282;94386;-72
2023/04/07 04:45:57;;;;;;;12.30;7.80;;;;;;;11.17;52.16;99934.33;146614;1282;112144;-78
2023/04/07 04:49:27;;;;;;;8.20;8.10;;;;;;;11.18;52.20;99938.52;146735;1282;111719;-72
2023/04/07 04:52:55;;;;;;;8.70;7.80;;;;;;;11.19;52.34;99940.09;146676;1282;108985;-74
2023/04/07 04:56:20;;;;;;;9.20;7.20;;;;;;;11.20;52.38;99938.36;146516;1281;110680;-73
2023/04/07 05:00:40;;;;;;;8.60;7.90;;;;;;;11.21;52.43;99938.73;147001;1275;109541;-73
2023/04/07 05:04:02;;;;;;;9.70;8.50;;;;;;;11.22;52.42;99936.83;146930;1282;109912;-71
2023/04/07 05:07:24;;;;;;;8.80;7.40;;;;;;;11.24;52.43;99941.36;146799;1282;94761;-78
2023/04/07 05:10:46;;;;;;;8.20;7.40;;;;;;;11.25;52.38;99941.56;146987;1282;94357;-86
2023/04/07 05:14:12;;;;;;;7.90;7.20;;;;;;;11.27;52.49;99941.25;147487;1273;104205;-85
2023/04/07 05:17:43;;;;;;;10.60;7.60;;;;;;;11.29;52.45;99945.78;146966;1279;101292;-80
2023/04/07 05:21:05;;;;;;;8.90;8.00;;;;;;;11.30;52.49;99943.19;147004;1280;94466;-78
2023/04/07 05:24:28;;;;;;;9.10;8.20;;;;;;;11.31;52.59;99942.17;146782;1280;94348;-72
2023/04/07 05:28:04;;;;;;;8.50;7.80;;;;;;;11.33;52.50;99946.89;146785;1280;102417;-71
2023/04/07 05:31:42;;;;;;;7.50;6.80;;;;;;;11.35;52.61;99947.62;146694;1281;102201;-80
2023/04/07 05:35:06;;;;;;;8.30;7.60;;;;;;;11.37;52.68;99942.94;146761;1280;102620;-73
2023/04/07 05:38:29;;;;;;;8.10;7.30;;;;;;;11.40;52.70;99946.64;147104;1276;103642;-73
2023/04/07 05:42:25;;;;;;;8.70;7.70;;;;;;;11.43;52.53;99947.02;146845;1283;101805;-72
2023/04/07 05:45:57;;;;;;;8.30;7.50;;;;;;;11.47;52.61;99944.45;146445;1281;104390;-72
2023/04/07 05:49:19;;;;;;;11.10;7.60;;;;;;;11.49;52.56;99945.17;146811;1280;103222;-73
2023/04/07 05:52:53;;;;;;;8.60;7.60;;;;;;;11.52;52.58;99942.79;146830;1281;102830;-79
2023/04/07 06:00:09;;;;;;;9.70;8.00;;;;;;;11.61;52.59;99947.24;147713;1273;99229;-71
2023/04/07 06:03:45;;;;;;;12.10;7.20;;;;;;;11.65;52.70;99947.11;146744;1280;102006;-76
2023/04/07 06:07:12;;;;;;;9.20;7.50;;;;;;;11.68;52.59;99945.42;146618;1282;106563;-72
2023/04/07 06:10:37;;;;;;;9.20;8.20;;;;;;;11.72;52.54;99949.99;146936;1282;100766;-77
2023/04/07 06:13:59;;;;;;;8.30;7.60;;;;;;;11.74;52.63;99946.70;146692;1280;94232;-71
2023/04/07 06:17:27;;;;;;;8.90;7.70;;;;;;;11.76;52.59;99946.73;146977;1280;94286;-78
2023/04/07 06:20:53;;;;;;;8.40;7.10;;;;;;;11.79;52.54;99943.29;146790;1282;100800;-74
2023/04/07 06:24:15;;;;;;;7.70;7.00;;;;;;;11.82;52.48;99941.92;146916;1280;94239;-72
2023/04/07 06:27:43;;;;;;;12.30;7.60;;;;;;;11.85;52.62;99942.17;147132;1280;94327;-72
2023/04/07 06:31:20;;;;;;;9.40;8.20;;;;;;;11.89;52.60;99941.34;146635;1282;107829;-74
2023/04/07 06:34:44;;;;;;;7.20;6.50;;;;;;;11.92;52.59;99939.80;146627;1281;107763;-73
2023/04/07 06:38:28;;;;;;;8.30;7.50;;;;;;;11.99;52.53;99938.66;146789;1272;107849;-78
2023/04/07 06:42:01;;;;;;;7.80;7.00;;;;;;;12.08;52.57;99942.06;146862;1279;108519;-78
2023/04/07 06:49:26;;;;;;;8.00;7.00;;;;;;;12.23;52.45;99937.17;147395;1273;107244;-73
2023/04/07 06:52:47;;;;;;;7.50;6.80;;;;;;;12.29;52.31;99933.39;147111;1282;94300;-71
2023/04/07 06:56:16;;;;;;;10.00;7.10;;;;;;;12.34;52.24;99939.71;147195;1280;94267;-79
2023/04/07 06:59:44;;;;;;;7.80;7.00;;;;;;;12.41;52.12;99944.13;146819;1280;94741;-83
2023/04/07 07:03:32;;;;;;;6.70;6.20;;;;;;;12.49;52.09;99940.73;146830;1273;94452;-73
2023/04/07 07:07:08;;;;;;;7.60;6.90;;;;;;;12.56;52.07;99941.30;146647;1281;94345;-74
2023/04/07 07:14:04;;;;;;;7.80;6.00;;;;;;;12.68;51.81;99941.41;147119;1276;94395;-72
2023/04/07 07:17:28;;;;;;;7.20;6.60;;;;;;;12.72;51.93;99937.95;147274;1272;94433;-83
2023/04/07 07:20:50;;;;;;;6.90;6.20;;;;;;;12.74;51.76;99934.66;146670;1281;94457;-73
2023/04/07 07:24:20;;;;;;;7.50;6.00;;;;;;;12.79;51.78;99930.33;146876;1281;94359;-75
2023/04/07 07:27:46;;;;;;;8.40;6.50;;;;;;;12.83;51.66;99940.81;146301;1281;94322;-73
2023/04/07 07:31:16;;;;;;;7.40;5.60;;;;;;;12.88;51.65;99946.09;146367;1283;94351;-80
2023/04/07 07:34:39;;;;;;;16.70;7.80;;;;;;;12.94;51.65;99950.31;146357;1282;94321;-74
2023/04/07 07:38:13;;;;;;;7.00;6.30;;;;;;;13.00;51.65;99945.13;147042;1276;95401;-82
2023/04/07 07:41:35;;;;;;;7.90;5.90;;;;;;;13.08;51.68;99951.98;146832;1280;94313;-78
2023/04/07 07:45:06;;;;;;;6.90;5.70;;;;;;;13.13;51.55;99954.11;146754;1280;94297;-75
2023/04/07 07:48:33;;;;;;;;;;;;;;;13.20;51.65;99959.39;146630;1282;94672;-75
2023/04/07 07:51:55;;;;;;;7.20;6.60;;;;;;;13.25;51.55;99960.48;146683;1282;94365;-73
2023/04/07 07:55:16;;;;;;;7.30;6.60;;;;;;;13.30;51.55;99958.44;147003;1282;94316;-74
2023/04/07 07:58:48;;;;;;;6.80;6.10;;;;;;;13.33;51.60;99961.07;147026;1279;94306;-73
2023/04/07 08:06:21;;;;;;;6.10;5.60;;;;;;;13.38;51.51;99963.36;147339;1279;94356;-76
2023/04/07 08:13:25;;;;;;;6.80;6.20;;;;;;;13.50;51.34;99964.13;146564;1282;94612;-77
2023/04/07 08:21:12;;;;;;;5.40;4.90;;;;;;;13.79;52.71;99967.58;147376;1273;94374;-77
2023/04/07 08:24:41;;;;;;;8.50;5.30;;;;;;;13.91;52.55;99964.65;146896;1280;94537;-75
2023/04/07 08:28:05;;;;;;;11.30;5.80;;;;;;;14.08;52.28;99958.94;146600;1273;95485;-73
2023/04/07 08:31:26;;;;;;;6.10;5.40;;;;;;;14.31;52.25;99958.29;146896;1281;94742;-72
2023/04/07 08:34:48;;;;;;;10.80;6.00;;;;;;;14.53;52.02;99962.35;146776;1281;94484;-78
2023/04/07 08:38:10;;;;;;;6.30;5.80;;;;;;;14.71;51.70;99965.16;147130;1276;94609;-75
2023/04/07 08:41:39;;;;;;;6.10;5.70;;;;;;;14.87;51.59;99963.58;146991;1280;108695;-76
2023/04/07 08:45:05;;;;;;;5.80;4.80;;;;;;;14.93;51.32;99957.98;146786;1280;110107;-82
2023/04/07 08:49:02;;;;;;;6.40;5.50;;;;;;;14.97;51.12;99956.41;147192;1272;109905;-76
2023/04/07 08:53:05;;;;;;;5.60;5.10;;;;;;;15.00;50.99;99959.55;146317;1282;110063;-77
2023/04/07 08:57:04;;;;;;;6.40;5.80;;;;;;;15.04;50.88;99957.98;146669;1282;108407;-73
2023/04/07 09:04:16;;;;;;;14.60;5.80;;;;;;;15.14;50.78;99964.09;146723;1281;109806;-75
2023/04/07 09:07:41;;;;;;;6.80;5.50;;;;;;;15.20;50.57;99966.35;146476;1282;110643;-87
2023/04/07 09:11:14;;;;;;;5.40;4.90;;;;;;;15.26;50.59;99966.16;146569;1282;108581;-83
2023/04/07 09:15:04;;;;;;;11.30;5.70;;;;;;;15.29;50.41;99962.30;146572;1282;109026;-73
2023/04/07 09:18:27;;;;;;;7.50;5.50;;;;;;;15.31;50.45;99964.39;146406;1283;109114;-79
2023/04/07 09:21:51;;;;;;;8.00;5.30;;;;;;;15.35;50.36;99962.11;146418;1284;108918;-77
2023/04/07 09:25:25;;;;;;;5.20;4.80;;;;;;;15.39;50.32;99960.02;146441;1284;94358;-85
2023/04/07 09:29:06;;;;;;;5.80;5.20;;;;;;;15.39;50.21;99960.18;146484;1282;110579;-72
2023/04/07 09:32:40;;;;;;;6.90;4.80;;;;;;;15.38;50.19;99958.60;146166;1285;109224;-75
2023/04/07 09:36:12;;;;;;;6.30;5.30;;;;;;;15.37;50.34;99957.91;146235;1283;112266;-74
2023/04/07 09:39:48;;;;;;;7.50;5.20;;;;;;;15.37;50.23;99958.27;146657;1281;109777;-73
2023/04/07 09:43:15;;;;;;;5.60;4.10;;;;;;;15.37;50.18;99959.84;146069;1282;818479;-74
2023/04/07 09:46:52;;;;;;;6.70;4.80;;;;;;;15.36;50.27;99964.75;146555;1282;109344;-71
2023/04/07 09:50:14;;;;;;;5.90;4.70;;;;;;;15.34;50.26;99963.69;146567;1278;110840;-72
2023/04/07 09:53:52;;;;;;;5.50;5.10;;;;;;;15.35;50.32;99963.34;146749;1280;94389;-74
2023/04/07 09:57:21;;;;;;;7.80;5.90;;;;;;;15.37;50.33;99961.06;146413;1282;110487;-74
2023/04/07 10:00:48;;;;;;;6.70;5.20;;;;;;;15.37;50.26;99962.29;146513;1282;108759;-77
2023/04/07 10:04:10;;;;;;;8.60;5.60;;;;;;;15.41;50.41;99961.75;146382;1282;110529;-72
2023/04/07 10:07:44;;;;;;;6.10;5.40;;;;;;;15.47;50.24;99964.70;146800;1277;110382;-73
2023/04/07 10:11:15;;;;;;;5.40;4.60;;;;;;;15.51;50.36;99968.72;146600;1279;109334;-72
2023/04/07 10:14:45;;;;;;;5.70;5.00;;;;;;;15.57;50.22;99968.89;146997;1280;94422;-72
2023/04/07 10:18:11;;;;;;;7.40;4.70;;;;;;;15.66;50.25;99967.12;146547;1280;111393;-83
2023/04/07 10:21:43;;;;;;;6.50;5.30;;;;;;;15.84;50.15;99964.42;146570;1281;110854;-72
2023/04/07 10:25:20;;;;;;;5.60;4.50;;;;;;;15.90;50.18;99965.63;146387;1281;109323;-76
2023/04/07 10:28:50;;;;;;;4.80;4.30;;;;;;;15.97;50.11;99971.20;146438;1282;110160;-72
2023/04/07 10:32:19;;;;;;;6.10;4.50;;;;;;;15.99;49.89;99972.41;147301;1276;109462;-78
2023/04/07 10:36:12;;;;;;;21.10;8.50;;;;;;;15.98;51.35;99977.85;145791;1286;108824;-72
2023/04/07 10:43:40;;;;;;;13.40;8.20;;;;;;;16.88;53.98;99980.27;146906;1273;109555;-71
2023/04/07 10:47:05;;;;;;;21.00;7.60;;;;;;;17.15;54.73;99980.02;146553;1282;111015;-71
2023/04/07 10:50:28;;;;;;;12.40;6.70;;;;;;;17.33;55.08;99985.10;146360;1281;94403;-77
2023/04/07 10:54:19;;;;;;;15.80;7.50;;;;;;;17.49;55.16;99987.75;146235;1281;94425;-72
2023/04/07 11:01:41;;;;;;;11.10;6.60;;;;;;;17.81;55.20;99990.05;146976;1278;109476;-75
2023/04/07 11:05:13;;;;;;;8.50;7.60;;;;;;;17.90;55.19;99991.16;146842;1281;110229;-80
2023/04/07 11:08:44;;;;;;;15.30;7.30;;;;;;;18.00;55.29;99990.50;146440;1280;110841;-71
2023/04/07 11:12:22;;;;;;;12.70;6.90;;;;;;;18.10;55.33;99989.51;146927;1283;109066;-71
2023/04/07 11:15:56;;;;;;;10.90;6.60;;;;;;;18.32;55.50;99988.67;146758;1280;110149;-74
2023/04/07 11:19:51;;;;;;;10.60;7.30;;;;;;;18.52;55.06;99989.44;146217;1282;109227;-77
2023/04/07 11:23:27;;;;;;;10.90;5.90;;;;;;;18.68;54.33;99988.83;145958;1285;110184;-76
2023/04/07 11:26:49;;;;;;;7.70;5.50;;;;;;;18.75;53.74;99992.63;145981;1286;94531;-76
2023/04/07 11:30:12;;;;;;;11.00;5.70;;;;;;;18.84;53.34;99989.30;147111;1276;94885;-78
2023/04/07 11:33:43;;;;;;;7.40;4.90;;;;;;;18.95;52.84;99991.59;146936;1280;102133;-71
2023/04/07 11:37:21;;;;;;;5.80;5.20;;;;;;;18.98;52.45;99991.17;146377;1281;103021;-72
2023/04/07 11:40:48;;;;;;;8.70;6.10;;;;;;;18.90;52.36;99993.27;146709;1276;103136;-73
2023/04/07 11:44:16;;;;;;;6.50;5.20;;;;;;;18.82;52.40;99996.02;146577;1280;94563;-74
2023/04/07 11:47:41;;;;;;;8.60;4.40;;;;;;;18.66;52.26;99993.10;146856;1282;102378;-73
2023/04/07 11:51:41;;;;;;;8.20;5.20;;;;;;;18.50;52.57;99997.38;146870;1281;100811;-69
2023/04/07 11:55:03;;;;;;;15.70;5.00;;;;;;;18.39;53.00;100000.71;146873;1282;102781;-75
2023/04/07 11:58:31;;;;;;;11.40;7.20;;;;;;;18.38;53.12;100001.42;146810;1282;94328;-70
2023/04/07 12:02:07;;;;;;;14.90;7.40;;;;;;;18.36;53.56;100002.50;146539;1282;102844;-77
2023/04/07 12:05:47;;;;;;;7.00;5.40;;;;;;;18.29;53.54;100001.73;146614;1281;100956;-71
2023/04/07 12:09:26;;;;;;;8.80;5.70;;;;;;;18.05;53.33;100006.27;146641;1282;102333;-72
2023/04/07 12:13:01;;;;;;;14.00;5.70;;;;;;;17.75;53.81;100011.89;146676;1282;102796;-73
2023/04/07 12:16:49;;;;;;;11.20;5.00;;;;;;;17.73;54.52;100019.13;146425;1282;100602;-77
2023/04/07 12:20:43;;;;;;;7.60;6.20;;;;;;;17.74;54.96;100017.16;145724;1281;102502;-76
2023/04/07 12:24:49;;;;;;;9.00;6.30;;;;;;;17.76;55.46;100014.70;146422;1282;101659;-74
2023/04/07 12:33:02;;;;;;;7.80;5.00;;;;;;;17.88;56.08;100019.85;145427;1280;99476;-81
2023/04/07 12:41:27;;;;;;;9.60;5.60;;;;;;;17.93;56.56;100019.95;132472;1280;100068;-73
2023/04/07 12:54:55;;;;;;;6.10;5.00;;;;;;;17.79;57.51;100028.75;146826;1282;102307;-70
2023/04/07 13:02:27;;;;;;;6.60;5.30;;;;;;;17.90;59.11;100035.12;145974;1286;102328;-72
2023/04/07 13:10:07;;;;;;;4.70;4.20;;;;;;;17.60;58.53;100037.88;146219;1282;99533;-75
2023/04/07 13:13:45;;;;;;;3.90;3.60;;;;;;;17.40;58.06;100040.55;146314;1282;103358;-73
2023/04/07 13:17:17;;;;;;;3.80;3.50;;;;;;;17.20;57.85;100047.59;146330;1282;101470;-74
2023/04/07 13:20:47;;;;;;;3.10;2.80;;;;;;;17.08;57.70;100053.48;146684;1282;94722;-76
2023/04/07 13:24:38;;;;;;;2.70;2.40;;;;;;;16.98;57.52;100054.62;146666;1282;101076;-75
2023/04/07 13:28:04;;;;;;;3.80;1.70;;;;;;;16.91;57.37;100053.97;146746;1281;102656;-77
2023/04/07 13:31:34;;;;;;;3.10;1.80;;;;;;;16.89;57.19;100059.60;146716;1282;103294;-78
2023/04/07 13:34:57;;;;;;;4.30;1.70;;;;;;;16.86;57.05;100057.67;146822;1278;102468;-72
2023/04/07 13:38:25;;;;;;;1.90;1.50;;;;;;;16.81;56.91;100065.63;146146;1282;101246;-80
2023/04/07 13:42:08;;;;;;;2.30;1.30;;;;;;;16.70;56.65;100072.52;146165;1282;102249;-73
2023/04/07 13:45:38;;;;;;;2.20;1.40;;;;;;;16.59;56.49;100073.09;146652;1282;101487;-76
2023/04/07 13:49:11;;;;;;;3.60;1.20;;;;;;;16.54;56.43;100080.49;146452;1282;102642;-80
2023/04/07 13:52:34;;;;;;;2.40;1.60;;;;;;;16.54;56.29;100077.52;146916;1282;94746;-76
2023/04/07 13:56:09;;;;;;;2.40;1.50;;;;;;;16.62;55.93;100075.36;146436;1282;102461;-78
2023/04/07 13:59:38;;;;;;;3.20;1.60;;;;;;;16.77;56.04;100074.21;146618;1282;102448;-76
2023/04/07 14:07:08;;;;;;;3.30;1.50;;;;;;;17.35;56.10;100068.00;147094;1277;99091;-72
2023/04/07 14:10:35;;;;;;;4.00;1.50;;;;;;;17.60;56.15;100070.75;146461;1285;101512;-75
2023/04/07 14:14:19;;;;;;;1.50;1.20;;;;;;;17.85;56.24;100071.39;146726;1282;101445;-73
2023/04/07 14:17:42;;;;;;;1.80;1.50;;;;;;;18.05;55.69;100078.20;146471;1279;102366;-81
2023/04/07 14:21:06;;;;;;;2.30;1.50;;;;;;;18.12;54.95;100084.98;146682;1279;101541;-76
2023/04/07 14:24:27;;;;;;;1.70;1.60;;;;;;;18.16;54.58;100088.09;146805;1280;94327;-73
2023/04/07 14:28:12;;;;;;;1.60;1.50;;;;;;;18.18;54.02;100089.29;146951;1282;94354;-73
2023/04/07 14:31:37;;;;;;;2.10;1.80;;;;;;;18.08;53.27;100087.65;146706;1282;107342;-78
2023/04/07 14:35:01;;;;;;;1.60;1.50;;;;;;;18.00;53.03;100094.08;146600;1281;94513;-74
2023/04/07 14:38:27;;;;;;;3.80;1.80;;;;;;;17.86;52.50;100094.59;146403;1282;107070;-71
2023/04/07 14:42:01;;;;;;;2.30;2.00;;;;;;;17.61;52.10;100094.98;146461;1282;107673;-76
2023/04/07 14:45:24;;;;;;;2.00;1.80;;;;;;;17.44;52.11;100112.54;146412;1282;107629;-74
2023/04/07 14:48:46;;;;;;;3.40;1.80;;;;;;;17.27;51.60;100114.44;146748;1282;94388;-76
2023/04/07 14:52:12;;;;;;;2.10;1.70;;;;;;;17.07;51.44;100115.29;146555;1282;94643;-80
2023/04/07 14:55:35;;;;;;;1.90;1.60;;;;;;;16.96;51.71;100123.10;146351;1281;94422;-71
2023/04/07 14:58:57;;;;;;;2.70;1.70;;;;;;;16.89;51.64;100124.89;146890;1281;94352;-84
2023/04/07 15:02:27;;;;;;;2.10;1.20;;;;;;;16.79;51.45;100128.28;146799;1282;94250;-72
2023/04/07 15:05:57;;;;;;;2.30;1.70;;;;;;;16.71;51.28;100132.16;146507;1281;94316;-82
2023/04/07 15:09:26;;;;;;;1.60;1.40;;;;;;;16.59;50.82;100136.96;146622;1282;94279;-72
2023/04/07 15:12:49;;;;;;;2.90;1.60;;;;;;;16.46;50.65;100137.02;146300;1282;94348;-74
2023/04/07 15:16:16;;;;;;;1.50;1.20;;;;;;;16.39;50.59;100141.79;146427;1282;94290;-72
2023/04/07 15:20:11;;;;;;;1.50;1.30;;;;;;;16.38;50.87;100143.02;146564;1281;94233;-75
2023/04/07 15:23:59;;;;;;;3.50;1.80;;;;;;;16.44;51.02;100151.06;146563;1281;94486;-80
2023/04/07 15:27:22;;;;;;;3.50;1.60;;;;;;;16.47;51.08;100153.52;146682;1281;94273;-73
2023/04/07 15:30:46;;;;;;;1.90;1.60;;;;;;;16.46;51.05;100157.02;146732;1281;94181;-73
2023/04/07 15:34:13;;;;;;;1.90;1.50;;;;;;;16.44;51.10;100157.90;146735;1280;94397;-78
2023/04/07 15:38:02;;;;;;;4.30;1.50;;;;;;;16.39;51.13;100157.92;146767;1280;94291;-80
2023/04/07 15:41:24;;;;;;;2.70;1.80;;;;;;;16.36;51.15;100160.21;146762;1280;94529;-72
2023/04/07 15:44:46;;;;;;;2.60;2.00;;;;;;;16.28;50.97;100160.59;147055;1280;94324;-75
2023/04/07 15:48:15;;;;;;;2.10;1.90;;;;;;;16.23;50.94;100164.48;146995;1281;94231;-79
2023/04/07 15:51:54;;;;;;;1.70;1.60;;;;;;;16.21;50.88;100161.31;146681;1279;110724;-73
2023/04/07 15:55:34;;;;;;;2.80;1.60;;;;;;;16.12;50.47;100161.16;146371;1281;110950;-73
2023/04/07 15:58:56;;;;;;;5.50;1.70;;;;;;;15.96;50.00;100165.23;146740;1279;109895;-72
2023/04/07 16:02:18;;;;;;;3.40;1.40;;;;;;;15.84;49.79;100167.17;146978;1279;94519;-72
2023/04/07 16:05:47;;;;;;;1.90;1.40;;;;;;;15.74;49.85;100168.94;146555;1279;94512;-76
2023/04/07 16:09:15;;;;;;;1.80;1.40;;;;;;;15.70;50.12;100166.33;146974;1279;112079;-72
2023/04/07 16:12:47;;;;;;;2.30;1.80;;;;;;;15.72;50.36;100170.52;146654;1281;111456;-74
2023/04/07 16:16:17;;;;;;;3.70;2.50;;;;;;;15.68;50.18;100176.30;146593;1282;94394;-74
2023/04/07 16:19:42;;;;;;;2.90;1.80;;;;;;;15.58;50.03;100184.70;146549;1280;109115;-72
2023/04/07 16:23:11;;;;;;;2.10;1.90;;;;;;;15.44;49.89;100193.61;146746;1280;112000;-72
2023/04/07 16:27:27;;;;;;;5.20;2.00;;;;;;;15.31;49.83;100194.30;146555;1281;108989;-78
2023/04/07 16:31:22;;;;;;;3.30;2.30;;;;;;;15.16;49.77;100205.14;146185;1283;110433;-73
2023/04/07 16:34:53;;;;;;;2.10;1.80;;;;;;;15.10;49.95;100205.64;146560;1283;110317;-72
2023/04/07 16:38:26;;;;;;;1.70;1.40;;;;;;;15.10;50.07;100210.90;146100;1282;109531;-73
2023/04/07 16:42:39;;;;;;;1.80;1.60;;;;;;;15.13;50.54;100212.47;146479;1282;109596;-72
2023/04/07 16:54:28;;;;;;;3.20;1.10;;;;;;;15.09;51.04;100232.42;143963;1276;110342;-83
2023/04/07 16:57:55;;;;;;;5.40;1.50;;;;;;;15.00;50.76;100239.04;146775;1282;109415;-72
2023/04/07 17:05:49;;;;;;;2.60;1.40;;;;;;;14.77;51.07;100259.25;115505;1308;110205;-76
2023/04/07 17:09:25;;;;;;;2.00;1.80;;;;;;;14.60;50.62;100268.27;145626;1288;109486;-74
2023/04/07 17:21:04;;;;;;;2.30;1.20;;;;;;;13.90;50.50;100291.34;137721;1282;109848;-80
2023/04/07 17:24:29;;;;;;;1.50;1.40;;;;;;;13.80;50.91;100294.40;146552;1281;94981;-73
2023/04/07 17:27:53;;;;;;;2.00;1.20;;;;;;;13.74;51.13;100294.16;146713;1282;94917;-72
